Time;durP1;ratioP1;P1;durP2;ratioP2;P2;SDS_P1;SDS_P2;PMS_P1;PMS_P2;Temp;Humidity;BMP_temperature;BMP_pressure;BME280_temperature;BME280_humidity;BME280_pressure;Samples;Min_cycle;Max_cycle;Signal;HPM_P1;HPM_P2
2024/01/31 00:00:31;;;;;;;34.90;17.47;;;5.40;99.90;;;;;;6178605;23;20525;-77
2024/01/31 00:02:57;;;;;;;30.87;15.80;;;5.40;99.90;;;;;;6178737;23;20009;-76
2024/01/31 00:05:22;;;;;;;32.47;14.80;;;5.30;99.90;;;;;;6179375;23;20031;-76
2024/01/31 00:07:48;;;;;;;38.23;16.57;;;5.30;99.90;;;;;;6179798;23;20008;-76
2024/01/31 00:10:14;;;;;;;29.73;15.40;;;5.30;99.90;;;;;;6179786;23;20040;-77
2024/01/31 00:12:40;;;;;;;37.47;15.33;;;5.20;99.90;;;;;;6179308;23;20001;-76
2024/01/31 00:15:06;;;;;;;35.23;16.53;;;5.10;99.90;;;;;;6179355;23;20088;-78
2024/01/31 00:17:31;;;;;;;29.90;16.40;;;5.00;99.90;;;;;;6179241;23;20057;-77
2024/01/31 00:19:57;;;;;;;31.63;15.43;;;5.10;99.90;;;;;;6178999;23;20009;-77
2024/01/31 00:22:22;;;;;;;33.30;15.27;;;5.00;99.90;;;;;;6178654;23;20457;-76
2024/01/31 00:24:48;;;;;;;28.57;15.20;;;5.00;99.90;;;;;;6179439;23;20059;-78
2024/01/31 00:27:14;;;;;;;34.40;16.90;;;5.00;99.90;;;;;;6177790;23;20047;-78
2024/01/31 00:29:39;;;;;;;28.33;14.67;;;5.10;99.90;;;;;;6200213;23;20067;-77
2024/01/31 00:32:05;;;;;;;32.33;15.40;;;5.10;99.90;;;;;;6201246;23;20088;-78
2024/01/31 00:34:31;;;;;;;34.65;15.63;;;5.00;99.90;;;;;;6178686;23;20005;-77
2024/01/31 00:36:57;;;;;;;33.53;15.82;;;5.00;99.90;;;;;;6200634;23;20031;-77
2024/01/31 00:39:28;;;;;;;34.97;15.20;;;5.00;99.90;;;;;;6179170;23;20001;-78
2024/01/31 00:41:54;;;;;;;33.03;15.55;;;4.90;99.90;;;;;;6177897;23;20033;-78
2024/01/31 00:44:20;;;;;;;37.47;15.00;;;5.00;99.90;;;;;;6178929;23;20079;-76
2024/01/31 00:46:48;;;;;;;37.42;15.70;;;5.00;99.90;;;;;;6178597;23;20036;-77
2024/01/31 00:49:13;;;;;;;31.33;16.15;;;5.00;99.90;;;;;;6178422;23;20016;-77
2024/01/31 00:51:43;;;;;;;34.53;16.55;;;5.00;99.90;;;;;;6177571;23;20020;-77
2024/01/31 00:54:09;;;;;;;30.77;15.02;;;4.90;99.90;;;;;;6178881;23;20013;-77
2024/01/31 00:56:35;;;;;;;28.95;15.20;;;4.90;99.90;;;;;;6178531;23;20009;-77
2024/01/31 00:59:00;;;;;;;37.20;15.90;;;4.90;99.90;;;;;;6178216;23;20009;-77
2024/01/31 01:01:26;;;;;;;29.63;14.43;;;4.90;99.90;;;;;;6178042;23;20006;-77
2024/01/31 01:03:51;;;;;;;29.73;15.70;;;4.80;99.90;;;;;;6178821;23;20001;-78
2024/01/31 01:06:17;;;;;;;24.33;13.67;;;4.80;99.90;;;;;;6177844;23;20009;-78
2024/01/31 01:08:43;;;;;;;26.97;14.40;;;4.80;99.90;;;;;;6177736;23;20001;-77
2024/01/31 01:11:08;;;;;;;28.17;14.10;;;4.70;99.90;;;;;;6178294;23;20082;-77
2024/01/31 01:13:34;;;;;;;34.87;15.30;;;4.70;99.90;;;;;;6178541;23;20005;-77
2024/01/31 01:15:59;;;;;;;25.73;13.17;;;4.70;99.90;;;;;;6180072;23;20016;-77
2024/01/31 01:18:25;;;;;;;32.77;14.93;;;4.70;99.90;;;;;;6180355;23;20063;-76
2024/01/31 01:20:50;;;;;;;32.90;16.77;;;4.60;99.90;;;;;;6179261;23;20009;-77
2024/01/31 01:23:16;;;;;;;33.43;16.27;;;4.50;99.90;;;;;;6177336;23;20007;-78
2024/01/31 01:25:42;;;;;;;33.53;16.70;;;4.60;99.90;;;;;;6178120;23;20513;-78
2024/01/31 01:28:07;;;;;;;28.73;15.20;;;4.60;99.90;;;;;;6177969;23;20429;-78
2024/01/31 01:30:33;;;;;;;28.35;15.02;;;4.50;99.90;;;;;;6176961;23;20016;-78
2024/01/31 01:32:59;;;;;;;27.90;14.87;;;4.50;99.90;;;;;;6178022;23;20016;-78
2024/01/31 01:35:24;;;;;;;23.67;13.13;;;4.60;99.90;;;;;;6202067;23;20036;-78
2024/01/31 01:37:50;;;;;;;31.30;15.40;;;4.60;99.90;;;;;;6178090;23;20088;-77
2024/01/31 01:40:16;;;;;;;35.47;15.23;;;4.60;99.90;;;;;;6176718;23;20068;-78
2024/01/31 01:42:42;;;;;;;30.15;14.00;;;4.60;99.90;;;;;;6177407;23;20001;-77
2024/01/31 01:45:08;;;;;;;30.80;13.63;;;4.60;99.90;;;;;;6178555;23;20012;-78
2024/01/31 01:47:40;;;;;;;26.45;13.82;;;4.50;99.90;;;;;;6178748;23;20136;-77
2024/01/31 01:50:08;;;;;;;26.50;13.90;;;4.60;99.90;;;;;;6178376;23;20155;-77
2024/01/31 01:52:34;;;;;;;21.85;12.60;;;4.50;99.90;;;;;;6202134;23;20009;-76
2024/01/31 01:55:03;;;;;;;28.13;13.63;;;4.50;99.90;;;;;;6178068;23;20099;-77
2024/01/31 01:57:31;;;;;;;21.55;11.50;;;4.50;99.90;;;;;;6178215;23;20540;-76
2024/01/31 01:59:58;;;;;;;25.17;13.45;;;4.40;99.90;;;;;;6196204;23;20048;-76
2024/01/31 02:02:26;;;;;;;28.23;14.10;;;4.40;99.90;;;;;;6149051;23;20334;-76
2024/01/31 02:04:52;;;;;;;25.48;12.77;;;4.40;99.90;;;;;;6148379;23;20104;-76
2024/01/31 02:07:25;;;;;;;29.77;12.93;;;4.40;99.90;;;;;;6148880;23;20460;-76
2024/01/31 02:09:52;;;;;;;27.15;13.27;;;4.30;99.90;;;;;;6148974;23;20014;-76
2024/01/31 02:12:17;;;;;;;25.65;13.68;;;4.30;99.90;;;;;;6149650;23;20024;-77
2024/01/31 02:14:52;;;;;;;30.13;13.80;;;4.30;99.90;;;;;;6149022;23;20725;-78
2024/01/31 02:17:17;;;;;;;32.75;14.90;;;4.30;99.90;;;;;;6147782;23;20234;-77
2024/01/31 02:19:43;;;;;;;35.97;16.13;;;4.20;99.90;;;;;;6148929;23;20145;-77
2024/01/31 02:22:19;;;;;;;28.87;15.23;;;4.20;99.90;;;;;;6148980;23;20670;-77
2024/01/31 02:24:44;;;;;;;29.75;14.90;;;4.10;99.90;;;;;;6148387;23;20016;-77
2024/01/31 02:27:10;;;;;;;28.13;14.80;;;4.10;99.90;;;;;;6148915;23;20006;-78
2024/01/31 02:29:39;;;;;;;27.63;14.23;;;4.10;99.90;;;;;;6148839;23;20323;-77
2024/01/31 02:32:06;;;;;;;28.65;13.75;;;4.00;99.90;;;;;;6150521;23;20261;-77
2024/01/31 02:34:31;;;;;;;31.65;15.27;;;3.90;99.90;;;;;;6199008;23;20009;-78
2024/01/31 02:36:57;;;;;;;27.08;14.45;;;4.10;99.90;;;;;;6149464;23;20065;-78
2024/01/31 02:39:23;;;;;;;30.52;16.55;;;4.10;99.90;;;;;;6150912;23;20480;-78
2024/01/31 02:41:49;;;;;;;31.27;15.00;;;4.10;99.90;;;;;;6148962;23;20010;-78
2024/01/31 02:44:15;;;;;;;35.20;14.43;;;4.10;99.90;;;;;;6150833;23;20020;-78
2024/01/31 02:46:40;;;;;;;27.03;15.07;;;4.10;99.90;;;;;;6151039;23;20422;-78
2024/01/31 02:49:07;;;;;;;37.07;15.03;;;4.10;99.90;;;;;;6199613;23;20606;-78
2024/01/31 02:51:34;;;;;;;24.58;13.55;;;4.10;99.90;;;;;;6151132;23;20005;-79
2024/01/31 02:54:00;;;;;;;27.58;13.80;;;4.10;99.90;;;;;;6150891;23;20001;-78
2024/01/31 02:56:25;;;;;;;26.85;14.30;;;4.10;99.90;;;;;;6151324;23;20006;-79
2024/01/31 02:58:51;;;;;;;29.80;15.73;;;4.10;99.90;;;;;;6158564;23;20016;-78
2024/01/31 03:01:16;;;;;;;35.03;16.10;;;4.10;99.90;;;;;;6182591;23;20008;-78
2024/01/31 03:03:42;;;;;;;33.87;14.47;;;4.00;99.90;;;;;;6181210;23;20452;-77
2024/01/31 03:06:08;;;;;;;28.30;14.53;;;3.90;99.90;;;;;;6181098;23;20005;-79
2024/01/31 03:08:33;;;;;;;36.75;14.80;;;4.00;99.90;;;;;;6180372;23;20066;-78
2024/01/31 03:10:59;;;;;;;30.30;14.47;;;4.00;99.90;;;;;;6180866;23;20036;-78
2024/01/31 03:13:25;;;;;;;24.10;13.80;;;4.00;99.90;;;;;;6181251;23;20333;-78
2024/01/31 03:15:50;;;;;;;23.43;13.67;;;4.00;99.90;;;;;;6180379;23;20001;-78
2024/01/31 03:18:16;;;;;;;28.03;14.20;;;3.90;99.90;;;;;;6180068;23;20485;-77
2024/01/31 03:20:41;;;;;;;25.87;13.40;;;3.90;99.90;;;;;;6180535;23;20107;-77
2024/01/31 03:23:07;;;;;;;33.47;15.43;;;3.90;99.90;;;;;;6180447;23;20013;-77
2024/01/31 03:25:32;;;;;;;34.23;15.20;;;4.00;99.90;;;;;;6180252;23;20012;-78
2024/01/31 03:27:58;;;;;;;36.20;15.63;;;3.90;99.90;;;;;;6180201;23;20616;-78
2024/01/31 03:30:23;;;;;;;35.13;15.90;;;3.90;99.90;;;;;;6180353;23;20016;-78
2024/01/31 03:32:49;;;;;;;31.07;16.73;;;3.90;99.90;;;;;;6180007;23;20009;-78
2024/01/31 03:35:15;;;;;;;32.83;15.67;;;3.80;99.90;;;;;;6179861;23;20004;-78
2024/01/31 03:37:42;;;;;;;29.13;15.13;;;3.80;99.90;;;;;;6179728;23;20052;-78
2024/01/31 03:40:08;;;;;;;29.77;15.40;;;3.90;99.90;;;;;;6179999;23;20040;-78
2024/01/31 03:42:34;;;;;;;40.15;15.85;;;3.80;99.90;;;;;;6179526;23;20473;-78
2024/01/31 03:45:00;;;;;;;30.47;14.50;;;3.80;99.90;;;;;;6179571;23;20102;-78
2024/01/31 03:47:25;;;;;;;33.60;14.17;;;3.90;99.90;;;;;;6180197;23;20232;-78
2024/01/31 03:49:52;;;;;;;27.83;14.23;;;4.00;99.90;;;;;;6202850;23;20298;-79
2024/01/31 03:52:17;;;;;;;30.67;15.02;;;4.00;99.90;;;;;;6180325;23;20016;-77
2024/01/31 03:54:43;;;;;;;28.97;13.50;;;4.00;99.90;;;;;;6179778;23;20013;-76
2024/01/31 03:57:09;;;;;;;30.00;13.90;;;4.00;99.90;;;;;;6179524;23;20036;-77
2024/01/31 03:59:34;;;;;;;28.13;13.97;;;4.00;99.90;;;;;;6179522;23;20013;-77
2024/01/31 04:02:00;;;;;;;26.45;13.80;;;4.00;99.90;;;;;;6202429;23;20005;-76
2024/01/31 04:04:25;;;;;;;33.67;13.63;;;4.00;99.90;;;;;;6179836;23;20013;-77
2024/01/31 04:06:51;;;;;;;24.73;13.57;;;4.00;99.90;;;;;;6203003;23;20001;-76
2024/01/31 04:09:17;;;;;;;27.17;13.37;;;3.90;99.90;;;;;;6179562;23;20044;-77
2024/01/31 04:11:42;;;;;;;25.37;14.13;;;3.90;99.90;;;;;;6179646;23;20240;-77
2024/01/31 04:14:08;;;;;;;26.50;13.37;;;3.80;99.90;;;;;;6180050;23;20319;-77
2024/01/31 04:16:33;;;;;;;29.17;13.97;;;3.90;99.90;;;;;;6179823;23;20063;-77
2024/01/31 04:18:59;;;;;;;30.13;13.83;;;3.90;99.90;;;;;;6179730;23;20005;-77
2024/01/31 04:21:25;;;;;;;28.70;14.57;;;3.80;99.90;;;;;;6179533;23;20401;-77
2024/01/31 04:23:50;;;;;;;29.00;14.10;;;3.80;99.90;;;;;;6178858;23;20091;-77
2024/01/31 04:26:16;;;;;;;26.17;13.63;;;3.70;99.90;;;;;;6178618;23;20008;-77
2024/01/31 04:28:42;;;;;;;26.65;13.32;;;3.70;99.90;;;;;;6179200;23;20005;-77
2024/01/31 04:31:14;;;;;;;25.03;13.17;;;3.70;99.90;;;;;;6152844;23;20013;-77
2024/01/31 04:33:40;;;;;;;25.38;13.85;;;3.60;99.90;;;;;;6178850;23;20005;-77
2024/01/31 04:36:06;;;;;;;28.38;14.63;;;3.60;99.90;;;;;;6179127;23;20436;-77
2024/01/31 04:38:32;;;;;;;32.42;14.32;;;3.50;99.90;;;;;;6179665;23;20082;-77
2024/01/31 04:40:57;;;;;;;28.00;14.27;;;3.50;99.90;;;;;;6179537;23;20047;-78
2024/01/31 04:43:24;;;;;;;27.90;15.57;;;3.40;99.90;;;;;;6181066;23;20445;-78
2024/01/31 04:45:49;;;;;;;33.55;15.25;;;3.50;99.90;;;;;;6205094;23;20774;-78
2024/01/31 04:48:15;;;;;;;35.67;13.83;;;3.50;99.90;;;;;;6179173;23;20012;-78
2024/01/31 04:50:40;;;;;;;30.00;14.63;;;3.50;99.90;;;;;;6178995;23;20013;-77
2024/01/31 04:53:06;;;;;;;32.57;14.60;;;3.50;99.90;;;;;;6178800;23;20089;-78
2024/01/31 04:55:31;;;;;;;27.43;14.90;;;3.50;99.90;;;;;;6179188;23;20492;-78
2024/01/31 04:57:57;;;;;;;30.53;14.17;;;3.50;99.90;;;;;;6180335;23;20040;-77
2024/01/31 05:00:23;;;;;;;29.08;14.70;;;3.50;99.90;;;;;;6178921;23;20017;-77
2024/01/31 05:02:52;;;;;;;29.30;14.88;;;3.50;99.90;;;;;;6178656;23;20033;-77
2024/01/31 05:05:19;;;;;;;29.25;14.70;;;3.50;99.90;;;;;;6179042;23;20059;-78
2024/01/31 05:07:45;;;;;;;30.23;15.98;;;3.50;99.90;;;;;;6152377;23;20015;-77
2024/01/31 05:10:11;;;;;;;27.50;14.93;;;3.50;99.90;;;;;;6178401;23;20024;-78
2024/01/31 05:12:37;;;;;;;28.92;14.23;;;3.40;99.90;;;;;;6201733;23;20009;-78
2024/01/31 05:15:04;;;;;;;26.45;14.10;;;3.40;99.90;;;;;;6178383;23;20048;-78
2024/01/31 05:17:30;;;;;;;26.73;15.40;;;3.40;99.90;;;;;;6178323;23;20000;-78
2024/01/31 05:19:56;;;;;;;29.35;14.05;;;3.40;99.90;;;;;;6202039;23;20056;-78
2024/01/31 05:22:21;;;;;;;31.40;13.80;;;3.30;99.90;;;;;;6152063;23;20441;-78
2024/01/31 05:24:47;;;;;;;30.20;13.77;;;3.30;99.90;;;;;;6178520;23;20248;-78
2024/01/31 05:27:12;;;;;;;30.43;14.87;;;3.30;99.90;;;;;;6178637;23;20011;-77
2024/01/31 05:29:38;;;;;;;30.33;15.77;;;3.30;99.90;;;;;;6178554;23;20268;-77
2024/01/31 05:32:04;;;;;;;26.47;13.47;;;3.40;99.90;;;;;;6179108;23;20005;-77
2024/01/31 05:34:30;;;;;;;32.17;15.20;;;3.40;99.90;;;;;;6178374;23;20349;-77
2024/01/31 05:36:55;;;;;;;33.77;15.60;;;3.30;99.90;;;;;;6178772;23;20008;-77
2024/01/31 05:39:22;;;;;;;29.57;14.93;;;3.30;99.90;;;;;;6202123;23;20005;-78
2024/01/31 05:41:47;;;;;;;40.08;16.13;;;3.30;99.90;;;;;;6178592;23;20032;-78
2024/01/31 05:44:13;;;;;;;40.60;17.13;;;3.40;99.90;;;;;;6178915;23;20012;-78
2024/01/31 05:46:38;;;;;;;33.30;16.00;;;3.40;99.90;;;;;;6178461;23;20241;-78
2024/01/31 05:49:05;;;;;;;33.10;16.67;;;3.40;99.90;;;;;;6178455;23;20020;-78
2024/01/31 05:51:31;;;;;;;39.28;16.52;;;3.40;99.90;;;;;;6178342;23;20005;-78
2024/01/31 05:53:56;;;;;;;30.80;15.27;;;3.50;99.90;;;;;;6178979;23;20341;-78
2024/01/31 05:56:23;;;;;;;31.47;16.07;;;3.50;99.90;;;;;;6178616;23;20012;-78
2024/01/31 05:58:48;;;;;;;34.50;16.33;;;3.50;99.90;;;;;;6178523;23;20009;-78
2024/01/31 06:01:14;;;;;;;28.40;15.10;;;3.50;99.90;;;;;;6179009;23;20072;-77
2024/01/31 06:03:40;;;;;;;32.53;17.17;;;3.50;99.90;;;;;;6179007;23;20329;-78
2024/01/31 06:06:06;;;;;;;37.80;15.93;;;3.60;99.90;;;;;;6178125;23;20484;-77
2024/01/31 06:08:35;;;;;;;30.50;16.17;;;3.50;99.90;;;;;;6178638;23;20385;-78
2024/01/31 06:11:08;;;;;;;33.50;16.27;;;3.60;99.90;;;;;;6178454;23;20108;-77
2024/01/31 06:13:37;;;;;;;28.40;14.57;;;3.60;99.90;;;;;;6178458;23;20009;-77
2024/01/31 06:16:03;;;;;;;28.30;14.52;;;3.70;99.90;;;;;;6178635;23;20013;-78
2024/01/31 06:18:33;;;;;;;30.85;16.60;;;3.70;99.90;;;;;;6179189;23;20001;-77
2024/01/31 06:21:00;;;;;;;25.25;14.93;;;3.70;99.90;;;;;;6179260;23;20035;-78
2024/01/31 06:23:26;;;;;;;;;;;3.70;99.90;;;;;;6179618;23;20048;-78
2024/01/31 06:25:52;;;;;;;27.52;13.75;;;3.70;99.90;;;;;;6178585;23;19908;-78
2024/01/31 06:28:17;;;;;;;28.80;16.27;;;3.70;99.90;;;;;;6179154;23;20005;-78
2024/01/31 06:30:44;;;;;;;28.47;15.13;;;3.60;99.90;;;;;;6180773;23;20009;-78
2024/01/31 06:33:11;;;;;;;30.70;15.82;;;3.60;99.90;;;;;;6179254;23;20009;-75
2024/01/31 06:35:38;;;;;;;;;;;3.60;99.90;;;;;;6178972;23;20012;-76
2024/01/31 06:38:04;;;;;;;33.80;17.00;;;3.60;99.90;;;;;;6178682;23;19939;-75
2024/01/31 06:40:30;;;;;;;30.52;15.73;;;3.60;99.90;;;;;;6177897;23;20561;-76
2024/01/31 06:42:57;;;;;;;33.20;15.35;;;3.70;99.90;;;;;;6174467;23;20005;-75
2024/01/31 06:45:24;;;;;;;28.25;14.88;;;3.70;99.90;;;;;;6199209;23;20449;-76
2024/01/31 06:47:51;;;;;;;43.50;18.63;;;3.70;99.90;;;;;;6200045;23;20012;-77
2024/01/31 06:50:16;;;;;;;49.72;24.25;;;3.60;99.90;;;;;;6199653;23;20017;-75
2024/01/31 06:52:42;;;;;;;52.37;26.87;;;3.60;99.90;;;;;;6176842;23;20012;-76
2024/01/31 06:55:08;;;;;;;62.40;26.50;;;3.60;99.90;;;;;;6176354;23;20013;-77
2024/01/31 06:57:34;;;;;;;38.65;20.40;;;3.50;99.90;;;;;;6176649;23;20001;-76
2024/01/31 07:00:01;;;;;;;37.17;18.33;;;3.50;99.90;;;;;;6176610;23;20028;-77
2024/01/31 07:02:26;;;;;;;40.83;19.33;;;3.50;99.90;;;;;;6177031;23;20076;-77
2024/01/31 07:04:52;;;;;;;39.17;19.33;;;3.50;99.90;;;;;;6177480;23;20040;-77
2024/01/31 07:07:17;;;;;;;50.40;20.60;;;3.50;99.90;;;;;;6177451;23;20007;-76
2024/01/31 07:09:43;;;;;;;41.50;19.80;;;3.50;99.90;;;;;;6177179;23;20012;-80
2024/01/31 07:12:08;;;;;;;49.43;19.03;;;3.40;99.90;;;;;;6177424;23;20515;-75
2024/01/31 07:14:34;;;;;;;41.57;20.20;;;3.50;99.90;;;;;;6176828;23;20032;-78
2024/01/31 07:16:59;;;;;;;39.83;19.97;;;3.50;99.90;;;;;;6202174;23;20430;-77
2024/01/31 07:19:25;;;;;;;46.00;18.80;;;3.60;99.90;;;;;;6178472;23;20013;-74
2024/01/31 07:21:51;;;;;;;40.08;19.17;;;3.60;99.90;;;;;;6151394;23;20029;-76
2024/01/31 07:24:17;;;;;;;39.92;17.90;;;3.70;99.90;;;;;;6178754;23;20374;-77
2024/01/31 07:26:42;;;;;;;42.03;18.67;;;3.70;99.90;;;;;;6177315;23;20000;-77
2024/01/31 07:29:08;;;;;;;34.27;17.67;;;3.70;99.90;;;;;;6178504;23;20009;-76
2024/01/31 07:31:34;;;;;;;35.92;17.90;;;3.80;99.90;;;;;;6178393;23;20497;-76
2024/01/31 07:33:59;;;;;;;36.58;18.40;;;3.80;99.90;;;;;;6177697;23;20009;-77
2024/01/31 07:36:25;;;;;;;39.40;16.67;;;3.90;99.90;;;;;;6177746;23;19997;-75
2024/01/31 07:38:51;;;;;;;39.77;18.57;;;4.00;99.90;;;;;;6178276;23;20008;-77
2024/01/31 07:41:16;;;;;;;38.13;16.90;;;4.10;99.90;;;;;;6179171;23;20096;-78
2024/01/31 07:43:42;;;;;;;38.80;17.67;;;4.10;99.90;;;;;;6176238;23;20514;-78
2024/01/31 07:46:08;;;;;;;40.25;17.75;;;4.20;99.90;;;;;;6177098;23;20000;-77
2024/01/31 07:48:34;;;;;;;37.30;18.10;;;4.30;99.90;;;;;;6178384;23;20005;-77
2024/01/31 07:51:04;;;;;;;36.77;18.03;;;4.40;99.90;;;;;;6179144;23;20092;-78
2024/01/31 07:53:30;;;;;;;38.28;18.02;;;4.50;99.90;;;;;;6179078;23;20009;-78
2024/01/31 07:55:56;;;;;;;33.03;17.00;;;4.60;99.90;;;;;;6179536;23;20496;-77
2024/01/31 07:58:21;;;;;;;29.25;16.88;;;4.60;99.90;;;;;;6179513;23;20001;-78
2024/01/31 08:00:47;;;;;;;36.90;19.33;;;4.70;99.90;;;;;;6179694;23;20040;-78
2024/01/31 08:03:13;;;;;;;32.20;18.17;;;4.80;99.90;;;;;;6179355;23;19997;-78
2024/01/31 08:05:38;;;;;;;34.63;18.93;;;4.90;99.90;;;;;;6179231;23;20625;-77
2024/01/31 08:08:04;;;;;;;37.17;19.15;;;5.00;99.90;;;;;;6152905;23;20015;-78
2024/01/31 08:10:30;;;;;;;41.92;19.50;;;5.00;99.90;;;;;;6179652;23;20024;-77
2024/01/31 08:12:56;;;;;;;38.63;19.17;;;5.10;99.90;;;;;;6180421;23;20076;-77
2024/01/31 08:15:21;;;;;;;35.97;19.33;;;5.00;99.90;;;;;;6180684;23;20075;-77
2024/01/31 08:17:47;;;;;;;39.63;19.63;;;5.10;99.90;;;;;;6181518;23;20013;-78
2024/01/31 08:20:13;;;;;;;32.78;18.63;;;;;;;;;;6203401;23;20005;-76
2024/01/31 08:22:39;;;;;;;49.28;20.45;;;5.20;99.90;;;;;;6179225;23;20358;-76
2024/01/31 08:25:05;;;;;;;60.47;21.60;;;5.40;99.90;;;;;;6179259;23;20051;-76
2024/01/31 08:27:31;;;;;;;73.47;21.42;;;5.50;99.90;;;;;;6178609;23;20005;-76
2024/01/31 08:29:57;;;;;;;48.92;21.08;;;5.70;99.90;;;;;;6202823;23;20020;-77
2024/01/31 08:32:22;;;;;;;47.90;21.13;;;5.80;99.90;;;;;;6179607;23;20008;-77
2024/01/31 08:34:48;;;;;;;46.97;22.88;;;6.00;99.90;;;;;;6179284;23;20232;-77
2024/01/31 08:37:14;;;;;;;54.43;24.23;;;6.00;99.90;;;;;;6179044;23;20028;-77
2024/01/31 08:39:41;;;;;;;88.70;23.40;;;6.10;99.90;;;;;;6179328;23;20039;-77
2024/01/31 08:42:07;;;;;;;74.10;23.70;;;;;;;;;;6178913;23;19997;-77
2024/01/31 08:44:33;;;;;;;82.00;24.90;;;;;;;;;;6178997;23;20009;-77
2024/01/31 08:46:59;;;;;;;71.65;24.90;;;;;;;;;;6179017;23;19997;-77
2024/01/31 08:49:25;;;;;;;96.97;27.02;;;;;;;;;;6178736;23;20004;-76
2024/01/31 08:51:53;;;;;;;65.63;23.10;;;;;;;;;;6179156;23;20080;-76
2024/01/31 08:54:19;;;;;;;47.55;20.55;;;;;;;;;;6178593;23;20871;-77
2024/01/31 08:56:45;;;;;;;100.78;25.67;;;;;;;;;;6179300;23;20009;-77
2024/01/31 08:59:12;;;;;;;63.35;22.70;;;;;;;;;;6178711;23;20435;-77
2024/01/31 09:01:42;;;;;;;67.25;22.88;;;;;;;;;;6178501;23;20080;-77
2024/01/31 09:04:08;;;;;;;92.72;24.38;;;;;;;;;;6179018;23;20005;-76
2024/01/31 09:06:35;;;;;;;84.18;29.67;;;6.10;99.90;;;;;;6178789;23;20005;-77
2024/01/31 09:09:00;;;;;;;;;;;6.80;99.90;;;;;;6178655;23;20464;-77
2024/01/31 09:11:26;;;;;;;42.03;21.83;;;6.80;99.90;;;;;;6179316;23;19904;-77
2024/01/31 09:13:52;;;;;;;57.47;25.37;;;6.90;99.90;;;;;;6178922;23;20005;-77
2024/01/31 09:16:17;;;;;;;67.23;23.73;;;6.90;99.90;;;;;;6152461;23;20016;-77
2024/01/31 09:18:43;;;;;;;41.70;21.67;;;6.90;99.90;;;;;;6178927;23;20076;-77
2024/01/31 09:21:08;;;;;;;39.17;19.93;;;6.90;99.90;;;;;;6178438;23;20043;-76
2024/01/31 09:23:34;;;;;;;48.90;24.13;;;6.80;99.90;;;;;;6178462;23;20008;-76
2024/01/31 09:26:01;;;;;;;75.27;30.23;;;6.70;99.90;;;;;;6202187;23;20040;-76
2024/01/31 09:28:27;;;;;;;78.38;31.88;;;6.80;99.90;;;;;;6179039;23;20006;-76
2024/01/31 09:30:53;;;;;;;73.17;33.83;;;;;;;;;;6178599;23;20721;-76
2024/01/31 09:33:19;;;;;;;57.17;26.92;;;7.10;99.90;;;;;;6178043;23;20457;-76
2024/01/31 09:35:45;;;;;;;52.20;22.38;;;7.60;99.90;;;;;;6178765;23;20341;-77
2024/01/31 09:38:10;;;;;;;46.90;22.10;;;10.20;99.90;;;;;;6178501;23;20028;-76
2024/01/31 09:40:36;;;;;;;43.17;19.17;;;11.30;97.00;;;;;;6178729;23;20012;-77
2024/01/31 09:43:02;;;;;;;48.70;20.13;;;12.00;93.60;;;;;;6178770;23;20008;-77
2024/01/31 09:45:28;;;;;;;;;;;12.30;92.00;;;;;;6178984;23;20009;-77
2024/01/31 09:47:56;;;;;;;56.88;21.92;;;11.00;92.50;;;;;;6177760;23;19908;-76
2024/01/31 09:50:22;;;;;;;66.18;26.60;;;9.60;96.30;;;;;;6178358;23;20093;-77
2024/01/31 09:52:54;;;;;;;59.40;23.60;;;9.20;99.30;;;;;;6178650;23;20056;-77
2024/01/31 09:55:21;;;;;;;68.93;25.55;;;10.10;97.70;;;;;;6178923;23;20464;-76
2024/01/31 09:57:47;;;;;;;56.22;23.02;;;9.70;97.70;;;;;;6180340;23;20024;-76
2024/01/31 10:00:13;;;;;;;43.77;22.13;;;10.20;97.70;;;;;;6179190;23;20013;-75
2024/01/31 10:02:41;;;;;;;40.28;21.77;;;10.70;96.60;;;;;;6178555;23;20001;-76
2024/01/31 10:05:07;;;;;;;41.42;21.63;;;11.80;94.30;;;;;;6178199;23;20001;-76
2024/01/31 10:07:33;;;;;;;40.33;20.20;;;13.20;91.70;;;;;;6178233;23;20012;-76
2024/01/31 10:09:59;;;;;;;39.77;20.37;;;12.60;90.70;;;;;;6178355;23;20023;-76
2024/01/31 10:12:26;;;;;;;60.65;24.95;;;11.00;93.00;;;;;;6178540;23;20080;-77
2024/01/31 10:14:52;;;;;;;56.22;21.38;;;10.30;95.40;;;;;;6178753;23;20020;-77
2024/01/31 10:17:20;;;;;;;41.67;21.33;;;10.30;97.00;;;;;;6178394;23;20718;-77
2024/01/31 10:19:46;;;;;;;44.83;21.83;;;10.50;96.60;;;;;;6178557;23;20348;-76
2024/01/31 10:22:11;;;;;;;35.92;19.92;;;11.20;95.50;;;;;;6178933;23;20005;-76
2024/01/31 10:24:38;;;;;;;39.87;18.30;;;12.10;94.70;;;;;;6178417;23;20548;-76
2024/01/31 10:27:08;;;;;;;38.63;19.27;;;12.60;92.10;;;;;;6178233;23;20012;-76
2024/01/31 10:29:36;;;;;;;43.22;19.83;;;12.50;92.10;;;;;;6178385;23;20005;-76
2024/01/31 10:32:03;;;;;;;46.00;20.38;;;11.80;93.50;;;;;;6178308;23;20009;-77
2024/01/31 10:34:29;;;;;;;38.20;21.55;;;11.40;94.60;;;;;;6178356;23;20055;-76
2024/01/31 10:36:55;;;;;;;43.95;20.75;;;11.20;94.90;;;;;;6177991;23;20009;-76
2024/01/31 10:39:21;;;;;;;35.47;18.65;;;11.20;95.20;;;;;;6178145;23;20032;-76
2024/01/31 10:41:47;;;;;;;31.20;17.70;;;11.00;94.30;;;;;;6175936;23;20438;-77
2024/01/31 10:44:14;;;;;;;40.00;18.70;;;11.00;94.90;;;;;;6178208;23;20009;-77
2024/01/31 10:46:41;;;;;;;;;;;10.90;94.90;;;;;;6178630;23;20009;-76
2024/01/31 10:49:06;;;;;;;39.15;18.17;;;10.80;94.90;;;;;;6177659;23;19958;-76
2024/01/31 10:51:34;;;;;;;46.20;19.03;;;10.70;95.80;;;;;;6179477;23;20072;-76
2024/01/31 10:54:01;;;;;;;34.53;18.58;;;10.60;96.00;;;;;;6180294;23;20251;-76
2024/01/31 10:56:27;;;;;;;34.42;18.52;;;10.70;96.20;;;;;;6180023;23;20067;-76
2024/01/31 10:58:56;;;;;;;33.53;17.65;;;10.70;96.40;;;;;;6179667;23;20353;-76
2024/01/31 11:01:29;;;;;;;37.65;18.10;;;10.80;95.60;;;;;;6180295;23;20382;-76
2024/01/31 11:03:55;;;;;;;31.67;18.67;;;10.70;95.60;;;;;;6180169;23;20024;-76
2024/01/31 11:06:24;;;;;;;34.30;19.37;;;10.70;95.50;;;;;;6180034;23;20811;-76
2024/01/31 11:08:50;;;;;;;31.58;17.02;;;10.60;95.00;;;;;;6179817;23;20712;-77
2024/01/31 11:11:19;;;;;;;33.25;17.15;;;10.50;95.10;;;;;;6203334;23;20354;-76
2024/01/31 11:13:45;;;;;;;31.60;17.08;;;10.40;95.70;;;;;;6180232;23;20076;-77
2024/01/31 11:16:11;;;;;;;35.93;18.00;;;10.40;95.40;;;;;;6180205;23;20507;-77
2024/01/31 11:18:36;;;;;;;31.30;16.23;;;10.40;95.60;;;;;;6180208;23;20037;-76
2024/01/31 11:21:08;;;;;;;39.00;16.52;;;10.50;95.90;;;;;;6180720;23;20008;-77
2024/01/31 11:23:34;;;;;;;30.38;17.15;;;10.60;96.20;;;;;;6179842;23;20001;-76
2024/01/31 11:26:02;;;;;;;41.97;17.23;;;10.80;95.90;;;;;;6204584;23;20408;-76
2024/01/31 11:28:28;;;;;;;30.27;15.95;;;11.10;95.40;;;;;;6180524;23;20033;-75
2024/01/31 11:30:54;;;;;;;34.63;16.98;;;11.20;95.10;;;;;;6181533;23;20015;-75
2024/01/31 11:33:20;;;;;;;29.55;16.95;;;11.20;93.70;;;;;;6180824;23;20006;-75
2024/01/31 11:35:50;;;;;;;33.17;17.00;;;11.30;93.60;;;;;;6179656;23;20345;-75
2024/01/31 11:38:17;;;;;;;27.90;15.25;;;11.40;94.00;;;;;;6201860;23;20005;-75
2024/01/31 11:40:42;;;;;;;;;;;11.40;92.90;;;;;;6180133;23;20008;-75
2024/01/31 11:43:08;;;;;;;32.35;15.15;;;11.40;93.70;;;;;;6179212;23;20280;-75
2024/01/31 11:45:34;;;;;;;28.15;16.08;;;11.40;94.10;;;;;;6179591;23;20413;-76
2024/01/31 11:47:59;;;;;;;29.73;16.50;;;11.40;94.30;;;;;;6179995;23;20341;-76
2024/01/31 11:50:26;;;;;;;28.60;16.57;;;11.50;94.50;;;;;;6179339;23;20013;-76
2024/01/31 11:52:52;;;;;;;;;;;11.50;94.10;;;;;;6179896;23;20421;-76
2024/01/31 11:55:22;;;;;;;31.02;15.25;;;11.60;93.90;;;;;;6178806;23;19927;-76
2024/01/31 11:57:47;;;;;;;29.52;15.90;;;11.70;95.10;;;;;;6179544;23;20100;-75
2024/01/31 12:00:14;;;;;;;34.45;17.00;;;11.70;95.50;;;;;;6179486;23;20533;-75
2024/01/31 12:02:40;;;;;;;;;;;11.70;95.00;;;;;;6179752;23;20330;-75
2024/01/31 12:05:06;;;;;;;25.98;15.43;;;11.80;95.00;;;;;;6179264;23;19900;-75
2024/01/31 12:07:32;;;;;;;30.27;15.15;;;11.80;95.10;;;;;;6179748;23;20005;-75
2024/01/31 12:09:59;;;;;;;29.20;16.17;;;11.80;95.20;;;;;;6179084;23;20073;-75
2024/01/31 12:12:26;;;;;;;;;;;11.90;94.90;;;;;;6178784;23;20404;-76
2024/01/31 12:14:53;;;;;;;26.88;14.85;;;12.00;93.60;;;;;;6178848;23;19930;-75
2024/01/31 12:17:20;;;;;;;33.22;15.43;;;12.00;93.70;;;;;;6179391;23;20016;-75
2024/01/31 12:19:45;;;;;;;30.33;15.38;;;12.00;94.00;;;;;;6179240;23;20001;-75
2024/01/31 12:22:11;;;;;;;28.50;14.50;;;12.10;94.40;;;;;;6178921;23;20016;-74
2024/01/31 12:24:37;;;;;;;29.42;15.32;;;12.10;93.30;;;;;;6178608;23;20035;-75
2024/01/31 12:27:03;;;;;;;24.17;13.30;;;12.10;94.30;;;;;;6152298;23;20009;-75
2024/01/31 12:29:29;;;;;;;31.98;14.18;;;12.00;93.80;;;;;;6179551;23;20017;-76
2024/01/31 12:31:55;;;;;;;21.80;12.83;;;12.10;94.00;;;;;;6179381;23;20019;-75
2024/01/31 12:34:20;;;;;;;23.17;11.30;;;12.00;93.90;;;;;;6178941;23;20043;-75